Time;durP1;ratioP1;P1;durP2;ratioP2;P2;SDS_P1;SDS_P2;PMS_P1;PMS_P2;Temp;Humidity;BMP_temperature;BMP_pressure;BME280_temperature;BME280_humidity;BME280_pressure;Samples;Min_cycle;Max_cycle;Signal;HPM_P1;HPM_P2
2024/03/28 00:02:12;;;;;;;13.38;6.05;;;7.20;99.90;;;;;;4993273;28;20133;-66
2024/03/28 00:04:38;;;;;;;3.53;1.95;;;7.20;99.90;;;;;;5009256;28;20093;-66
2024/03/28 00:07:04;;;;;;;4.30;1.60;;;7.20;99.90;;;;;;4993413;28;20045;-66
2024/03/28 00:09:31;;;;;;;4.88;1.00;;;7.10;99.90;;;;;;4994484;28;20058;-66
2024/03/28 00:11:57;;;;;;;3.05;1.52;;;7.10;99.90;;;;;;4988361;28;20452;-66
2024/03/28 00:14:23;;;;;;;1.98;1.52;;;7.10;99.90;;;;;;4992180;28;20023;-66
2024/03/28 00:16:49;;;;;;;2.35;1.50;;;7.00;99.90;;;;;;4988023;28;20122;-66
2024/03/28 00:19:15;;;;;;;4.25;1.30;;;7.00;99.90;;;;;;4990861;28;20044;-66
2024/03/28 00:21:41;;;;;;;1.90;1.15;;;7.00;99.90;;;;;;4989855;28;20488;-66
2024/03/28 00:24:07;;;;;;;2.72;1.75;;;7.00;99.90;;;;;;4989758;28;20040;-66
2024/03/28 00:26:33;;;;;;;3.17;1.60;;;7.00;99.90;;;;;;4990419;28;20038;-66
2024/03/28 00:28:59;;;;;;;2.33;1.20;;;7.00;99.90;;;;;;4988726;28;20106;-66
2024/03/28 00:31:25;;;;;;;4.10;1.95;;;7.10;99.90;;;;;;4992139;28;20026;-66
2024/03/28 00:33:52;;;;;;;3.17;1.70;;;7.10;99.90;;;;;;5002033;28;20030;-66
2024/03/28 00:36:18;;;;;;;3.28;1.30;;;7.10;99.90;;;;;;4991785;28;20030;-66
2024/03/28 00:38:44;;;;;;;3.83;1.88;;;7.00;99.90;;;;;;5001696;28;20489;-66
2024/03/28 00:41:10;;;;;;;2.30;1.30;;;7.00;99.90;;;;;;4993685;28;20112;-66
2024/03/28 00:43:35;;;;;;;6.95;1.60;;;7.00;99.90;;;;;;4989526;28;20027;-66
2024/03/28 00:46:02;;;;;;;3.42;1.67;;;6.90;99.90;;;;;;4993300;28;20031;-67
2024/03/28 00:48:27;;;;;;;1.88;1.25;;;6.80;99.90;;;;;;5008058;28;20395;-67
2024/03/28 00:50:59;;;;;;;4.82;1.95;;;6.80;99.90;;;;;;4992473;28;20037;-67
2024/03/28 00:53:26;;;;;;;4.68;1.50;;;6.80;99.90;;;;;;4992909;28;20034;-67
2024/03/28 00:55:52;;;;;;;5.38;2.15;;;6.70;99.90;;;;;;4992617;28;20045;-67
2024/03/28 00:58:19;;;;;;;5.43;2.00;;;6.60;99.90;;;;;;4991870;28;20030;-67
2024/03/28 01:00:47;;;;;;;3.10;1.75;;;6.60;99.90;;;;;;4993544;28;20053;-67
2024/03/28 01:03:14;;;;;;;1.65;1.23;;;6.60;99.90;;;;;;5007856;28;20034;-66
2024/03/28 01:05:41;;;;;;;3.33;1.60;;;6.60;99.90;;;;;;4991702;28;20041;-66
2024/03/28 01:08:07;;;;;;;3.65;1.38;;;6.70;99.90;;;;;;4992292;28;20038;-66
2024/03/28 01:10:35;;;;;;;7.88;1.83;;;6.60;99.90;;;;;;4993386;28;20031;-66
2024/03/28 01:13:02;;;;;;;2.30;1.25;;;6.60;99.90;;;;;;5006484;28;20058;-67
2024/03/28 01:15:28;;;;;;;2.30;1.50;;;6.60;99.90;;;;;;5006905;28;20056;-67
2024/03/28 01:17:53;;;;;;;3.17;1.20;;;6.50;99.90;;;;;;4992288;28;20649;-66
2024/03/28 01:20:19;;;;;;;2.25;1.27;;;6.40;99.90;;;;;;4989586;28;20541;-66
2024/03/28 01:22:46;;;;;;;4.50;1.67;;;6.40;99.90;;;;;;5006840;28;20053;-66
2024/03/28 01:25:12;;;;;;;2.50;1.48;;;6.30;99.90;;;;;;4992326;28;20084;-66
2024/03/28 01:27:38;;;;;;;3.05;1.35;;;6.30;99.90;;;;;;4993151;28;20043;-66
2024/03/28 01:30:05;;;;;;;3.63;1.40;;;6.10;99.90;;;;;;4993389;28;20395;-66
2024/03/28 01:32:31;;;;;;;2.63;1.20;;;6.10;99.90;;;;;;4991280;28;20066;-66
2024/03/28 01:34:57;;;;;;;2.08;1.42;;;6.00;99.90;;;;;;4992742;28;20581;-66
2024/03/28 01:37:22;;;;;;;4.25;2.20;;;6.00;99.90;;;;;;4991557;28;20070;-66
2024/03/28 01:39:48;;;;;;;2.10;1.52;;;5.90;99.90;;;;;;4992809;28;20031;-66
2024/03/28 01:42:14;;;;;;;2.58;1.35;;;5.90;99.90;;;;;;4991855;28;20042;-66
2024/03/28 01:44:40;;;;;;;4.82;1.63;;;5.90;99.90;;;;;;4991113;28;20382;-66
2024/03/28 01:47:06;;;;;;;4.00;1.88;;;5.90;99.90;;;;;;4991254;28;20031;-67
2024/03/28 01:49:36;;;;;;;3.30;1.70;;;5.90;99.90;;;;;;5007318;28;20665;-66
2024/03/28 01:52:02;;;;;;;5.32;1.42;;;5.80;99.90;;;;;;5006394;28;20410;-66
2024/03/28 01:54:32;;;;;;;2.15;0.82;;;5.80;99.90;;;;;;4991970;28;20438;-66
2024/03/28 01:57:01;;;;;;;2.45;1.45;;;5.70;99.90;;;;;;4986895;28;20486;-67
2024/03/28 01:59:28;;;;;;;2.58;1.63;;;5.70;99.90;;;;;;4990952;28;20117;-66
2024/03/28 02:01:55;;;;;;;1.40;0.93;;;5.70;99.90;;;;;;4992255;28;20041;-66
2024/03/28 02:04:21;;;;;;;1.25;1.10;;;5.70;99.90;;;;;;5005499;28;20026;-67
2024/03/28 02:06:46;;;;;;;9.00;1.33;;;5.70;99.90;;;;;;4986710;28;20041;-67
2024/03/28 02:09:12;;;;;;;3.67;2.17;;;5.70;99.90;;;;;;5007614;28;20030;-67
2024/03/28 02:11:38;;;;;;;1.83;1.25;;;5.70;99.90;;;;;;4991165;28;20103;-66
2024/03/28 02:14:04;;;;;;;2.00;0.95;;;5.70;99.90;;;;;;4991782;28;20026;-67
2024/03/28 02:16:37;;;;;;;5.22;1.50;;;5.70;99.90;;;;;;4990124;28;20030;-66
2024/03/28 02:19:04;;;;;;;1.80;1.30;;;5.70;99.90;;;;;;5007016;28;20049;-67
2024/03/28 02:21:30;;;;;;;3.00;1.63;;;5.70;99.90;;;;;;4989551;28;20046;-66
2024/03/28 02:23:56;;;;;;;2.45;1.48;;;5.60;99.90;;;;;;4991790;28;20379;-67
2024/03/28 02:26:24;;;;;;;1.80;1.38;;;5.60;99.90;;;;;;4990435;28;20053;-66
2024/03/28 02:28:51;;;;;;;2.30;1.38;;;5.60;99.90;;;;;;4991969;28;20391;-67
2024/03/28 02:31:17;;;;;;;2.00;1.40;;;5.50;99.90;;;;;;4991172;28;20022;-67
2024/03/28 02:33:43;;;;;;;2.33;1.48;;;5.50;99.90;;;;;;4991998;28;20029;-66
2024/03/28 02:36:09;;;;;;;1.88;1.13;;;5.40;99.90;;;;;;4991148;28;20050;-67
2024/03/28 02:38:35;;;;;;;2.85;1.85;;;5.50;99.90;;;;;;4991227;28;20106;-67
2024/03/28 02:41:01;;;;;;;2.67;0.95;;;5.40;99.90;;;;;;5006757;28;20034;-67
2024/03/28 02:43:28;;;;;;;0.93;0.77;;;5.30;99.90;;;;;;4990476;28;20467;-67
2024/03/28 02:45:54;;;;;;;7.07;1.52;;;5.30;99.90;;;;;;4990601;28;20042;-67
2024/03/28 02:48:20;;;;;;;3.25;1.05;;;5.30;99.90;;;;;;4990661;28;20089;-67
2024/03/28 02:50:46;;;;;;;2.35;1.20;;;5.30;99.90;;;;;;4991615;28;20092;-67
2024/03/28 02:53:12;;;;;;;2.22;1.13;;;5.30;99.90;;;;;;5006025;28;20121;-67
2024/03/28 02:55:38;;;;;;;1.52;0.93;;;5.30;99.90;;;;;;4990976;28;20034;-68
2024/03/28 02:58:04;;;;;;;1.00;0.90;;;5.30;99.90;;;;;;5006026;28;20057;-67
2024/03/28 03:00:30;;;;;;;1.88;1.02;;;5.30;99.90;;;;;;5006479;28;20077;-67
2024/03/28 03:02:56;;;;;;;4.72;1.05;;;5.30;99.90;;;;;;5005918;28;20034;-67
2024/03/28 03:05:22;;;;;;;2.17;1.40;;;5.30;99.90;;;;;;5005920;28;20027;-67
2024/03/28 03:07:47;;;;;;;1.08;0.75;;;5.20;99.90;;;;;;4990709;28;20035;-67
2024/03/28 03:10:14;;;;;;;2.00;1.25;;;5.30;99.90;;;;;;5006425;28;20495;-67
2024/03/28 03:12:40;;;;;;;2.33;1.05;;;5.30;99.90;;;;;;4990561;28;20034;-67
2024/03/28 03:15:06;;;;;;;1.42;0.98;;;5.30;99.90;;;;;;4987038;28;20097;-68
2024/03/28 03:17:32;;;;;;;1.38;0.98;;;5.30;99.90;;;;;;4973278;28;20037;-67
2024/03/28 03:19:59;;;;;;;0.88;0.60;;;5.20;99.90;;;;;;4991615;28;20022;-67
2024/03/28 03:22:26;;;;;;;2.70;1.27;;;5.20;99.90;;;;;;4990475;28;20125;-67
2024/03/28 03:24:58;;;;;;;6.20;1.25;;;5.10;99.90;;;;;;5006590;28;20538;-67
2024/03/28 03:27:32;;;;;;;2.65;1.38;;;5.10;99.90;;;;;;5004700;28;20045;-67
2024/03/28 03:35:30;;;;;;;2.80;1.30;;;5.20;99.90;;;;;;5003561;28;20088;-67
2024/03/28 03:37:55;;;;;;;0.95;0.60;;;5.20;99.90;;;;;;4993137;28;20109;-67
2024/03/28 03:40:21;;;;;;;2.67;0.95;;;5.20;99.90;;;;;;4993241;28;20456;-67
2024/03/28 03:42:47;;;;;;;2.35;1.00;;;5.20;99.90;;;;;;4993991;28;20081;-67
2024/03/28 03:45:13;;;;;;;2.78;1.42;;;5.10;99.90;;;;;;4994319;28;20077;-67
2024/03/28 03:47:38;;;;;;;1.63;1.33;;;5.10;99.90;;;;;;4993699;28;20436;-68
2024/03/28 03:50:05;;;;;;;3.97;1.17;;;5.00;99.90;;;;;;5009684;28;20105;-67
2024/03/28 03:52:30;;;;;;;1.77;0.80;;;5.00;99.90;;;;;;4993308;28;20037;-67
2024/03/28 03:54:57;;;;;;;1.70;0.98;;;4.90;99.90;;;;;;4994045;28;20042;-67
2024/03/28 03:57:23;;;;;;;1.02;0.80;;;4.90;99.90;;;;;;4993162;28;20046;-67
2024/03/28 03:59:49;;;;;;;1.67;1.00;;;4.90;99.90;;;;;;4994629;28;20041;-67
2024/03/28 04:02:14;;;;;;;1.02;0.60;;;4.90;99.90;;;;;;4993368;28;20046;-68
2024/03/28 04:04:40;;;;;;;1.92;0.90;;;4.90;99.90;;;;;;4994302;28;20038;-67
2024/03/28 04:07:06;;;;;;;1.17;0.95;;;4.90;99.90;;;;;;4993233;28;20038;-67
2024/03/28 04:09:31;;;;;;;1.10;0.80;;;5.00;99.90;;;;;;4994329;28;20511;-66
2024/03/28 04:11:57;;;;;;;2.13;0.80;;;5.00;99.90;;;;;;4993840;28;20076;-67
2024/03/28 04:14:23;;;;;;;1.17;1.00;;;5.00;99.90;;;;;;5008734;28;20084;-66
2024/03/28 04:16:49;;;;;;;1.70;0.93;;;5.00;99.90;;;;;;4992917;28;20566;-66
2024/03/28 04:19:14;;;;;;;2.25;1.35;;;5.00;99.90;;;;;;4994266;28;20034;-66
2024/03/28 04:21:40;;;;;;;2.70;1.20;;;5.00;99.90;;;;;;4992956;28;20502;-67
2024/03/28 04:24:06;;;;;;;2.22;0.93;;;4.90;99.90;;;;;;4993702;28;20044;-67
2024/03/28 04:26:33;;;;;;;2.40;0.80;;;4.90;99.90;;;;;;4992499;28;20030;-67
2024/03/28 04:29:00;;;;;;;0.65;0.63;;;5.00;99.90;;;;;;4993860;28;20027;-67
2024/03/28 04:31:26;;;;;;;1.20;1.02;;;4.90;99.90;;;;;;4991866;28;20026;-67
2024/03/28 04:33:52;;;;;;;3.80;0.80;;;4.90;99.90;;;;;;4993687;28;20533;-67
2024/03/28 04:36:18;;;;;;;0.82;0.55;;;4.80;99.90;;;;;;4992406;28;20050;-67
2024/03/28 04:38:44;;;;;;;1.63;0.93;;;4.80;99.90;;;;;;5007934;28;20030;-67
2024/03/28 04:41:11;;;;;;;11.02;1.23;;;4.70;99.90;;;;;;5008295;28;20037;-67
2024/03/28 04:43:38;;;;;;;4.22;1.30;;;4.70;99.90;;;;;;5008298;28;20026;-67
2024/03/28 04:46:04;;;;;;;0.80;0.70;;;4.60;99.90;;;;;;4993476;28;20027;-67
2024/03/28 04:48:30;;;;;;;2.03;0.90;;;4.70;99.90;;;;;;4972599;28;20057;-67
2024/03/28 04:50:57;;;;;;;4.57;1.33;;;4.80;99.90;;;;;;4993671;28;20038;-67
2024/03/28 04:53:23;;;;;;;1.27;0.75;;;4.70;99.90;;;;;;4992078;28;20105;-67
2024/03/28 04:55:49;;;;;;;1.05;0.77;;;4.70;99.90;;;;;;5007925;28;20129;-67
2024/03/28 04:58:15;;;;;;;1.25;0.70;;;4.70;99.90;;;;;;4992543;28;20030;-67
2024/03/28 05:00:41;;;;;;;1.80;1.35;;;4.60;99.90;;;;;;4993374;28;20498;-67
2024/03/28 05:03:07;;;;;;;1.88;0.80;;;4.60;99.90;;;;;;4992577;28;20077;-67
2024/03/28 05:05:33;;;;;;;1.63;0.80;;;4.60;99.90;;;;;;4991892;28;20506;-67
2024/03/28 05:07:59;;;;;;;1.67;0.85;;;4.50;99.90;;;;;;4991648;28;20038;-68
2024/03/28 05:10:26;;;;;;;6.90;1.65;;;4.50;99.90;;;;;;4993188;28;20437;-66
2024/03/28 05:12:51;;;;;;;1.20;1.05;;;4.50;99.90;;;;;;4992128;28;20605;-66
2024/03/28 05:15:17;;;;;;;2.63;1.17;;;4.50;99.90;;;;;;4991949;28;20030;-66
2024/03/28 05:17:43;;;;;;;0.68;0.52;;;4.50;99.90;;;;;;4993470;28;20674;-66
2024/03/28 05:20:12;;;;;;;1.67;1.05;;;4.70;99.90;;;;;;5008510;28;20046;-66
2024/03/28 05:22:38;;;;;;;3.17;0.98;;;4.80;99.90;;;;;;5005845;28;20054;-66
2024/03/28 05:25:06;;;;;;;2.25;1.05;;;5.00;99.90;;;;;;4992407;28;20037;-66
2024/03/28 05:27:34;;;;;;;1.38;0.93;;;5.00;99.90;;;;;;4991045;28;20479;-66
2024/03/28 05:30:02;;;;;;;5.18;1.30;;;5.00;99.90;;;;;;4992620;28;20033;-66
2024/03/28 05:32:28;;;;;;;2.38;1.10;;;5.00;99.90;;;;;;5008639;28;20022;-67
2024/03/28 05:34:54;;;;;;;1.05;0.70;;;5.00;99.90;;;;;;5000913;28;20371;-66
2024/03/28 05:37:20;;;;;;;2.25;1.45;;;5.00;99.90;;;;;;4998343;28;20030;-67
2024/03/28 05:39:45;;;;;;;1.77;1.13;;;5.00;99.90;;;;;;4999359;28;20448;-67
2024/03/28 05:42:11;;;;;;;1.58;0.93;;;5.00;99.90;;;;;;4991601;28;20042;-67
2024/03/28 05:44:37;;;;;;;2.15;1.30;;;5.00;99.90;;;;;;4992486;28;20081;-67
2024/03/28 05:47:02;;;;;;;1.45;0.73;;;5.10;99.90;;;;;;4998547;28;20495;-67
2024/03/28 05:49:28;;;;;;;2.75;1.10;;;5.10;99.90;;;;;;4993834;28;20033;-67
2024/03/28 05:51:54;;;;;;;1.33;1.05;;;5.10;99.90;;;;;;4991823;28;20070;-67
2024/03/28 05:54:20;;;;;;;2.10;1.13;;;5.10;99.90;;;;;;4991569;28;20424;-67
2024/03/28 05:56:46;;;;;;;3.00;1.23;;;5.30;99.90;;;;;;4990212;28;20033;-67
2024/03/28 05:59:11;;;;;;;2.55;0.98;;;5.40;99.90;;;;;;4991680;28;20030;-67
2024/03/28 06:01:37;;;;;;;7.88;1.13;;;5.50;99.90;;;;;;4995943;28;20647;-67
2024/03/28 06:04:03;;;;;;;1.83;0.70;;;5.50;99.90;;;;;;5001406;28;20026;-67
2024/03/28 06:06:29;;;;;;;3.28;1.10;;;5.70;99.90;;;;;;5000549;28;20298;-67
2024/03/28 06:08:54;;;;;;;1.98;1.27;;;5.70;99.90;;;;;;5000469;28;20471;-67
2024/03/28 06:11:20;;;;;;;1.50;0.73;;;5.80;99.90;;;;;;4998421;28;20022;-67
2024/03/28 06:13:46;;;;;;;3.38;0.90;;;5.90;99.90;;;;;;5002165;28;20026;-67
2024/03/28 06:16:12;;;;;;;1.27;1.17;;;5.90;99.90;;;;;;4997202;28;20026;-67
2024/03/28 06:18:37;;;;;;;1.23;0.70;;;6.00;99.90;;;;;;5001157;28;20041;-66
2024/03/28 06:21:05;;;;;;;1.05;0.88;;;6.10;99.90;;;;;;5000465;28;20037;-67
2024/03/28 06:23:32;;;;;;;1.27;0.52;;;6.20;99.90;;;;;;5006177;28;20042;-67
2024/03/28 06:26:02;;;;;;;1.17;0.65;;;6.30;99.90;;;;;;5005945;28;20034;-67
2024/03/28 06:28:29;;;;;;;4.47;0.80;;;6.40;99.90;;;;;;5009083;28;20484;-67
2024/03/28 06:30:56;;;;;;;0.63;0.47;;;6.50;99.90;;;;;;4994939;28;20027;-67
2024/03/28 06:33:23;;;;;;;3.92;1.20;;;6.60;99.90;;;;;;4994609;28;20114;-68
2024/03/28 06:35:49;;;;;;;1.13;0.90;;;6.70;99.90;;;;;;4990827;28;20034;-67
2024/03/28 06:38:15;;;;;;;1.83;1.48;;;6.90;99.90;;;;;;5005778;28;20030;-67
2024/03/28 06:40:41;;;;;;;2.13;0.60;;;7.00;99.90;;;;;;4999445;28;20053;-67
2024/03/28 06:43:07;;;;;;;1.42;0.55;;;7.00;99.90;;;;;;4999445;28;20035;-67
2024/03/28 06:45:32;;;;;;;1.85;0.70;;;7.10;99.90;;;;;;5002949;28;20026;-66
2024/03/28 06:47:58;;;;;;;0.82;0.60;;;7.20;99.90;;;;;;4998754;28;20042;-67
2024/03/28 06:50:24;;;;;;;1.35;1.10;;;7.10;99.90;;;;;;5002766;28;20025;-67
2024/03/28 06:52:52;;;;;;;1.13;0.90;;;7.00;99.90;;;;;;5015331;28;20030;-67
2024/03/28 06:55:19;;;;;;;0.82;0.63;;;7.00;99.90;;;;;;4996140;28;20049;-67
2024/03/28 06:57:45;;;;;;;1.00;0.80;;;6.90;99.90;;;;;;4998287;28;20118;-67
2024/03/28 07:00:12;;;;;;;3.05;1.02;;;6.90;99.90;;;;;;4999409;28;20109;-67
2024/03/28 07:02:38;;;;;;;1.90;0.85;;;6.80;99.90;;;;;;5015325;28;20038;-67
2024/03/28 07:05:04;;;;;;;1.75;0.68;;;6.70;99.90;;;;;;5000767;28;20041;-67
2024/03/28 07:07:30;;;;;;;0.70;0.57;;;6.70;99.90;;;;;;4999569;28;20044;-67
2024/03/28 07:09:57;;;;;;;2.53;1.30;;;6.70;99.90;;;;;;4999252;28;20068;-67
2024/03/28 07:12:24;;;;;;;2.10;0.93;;;6.60;99.90;;;;;;5002490;28;20022;-67
2024/03/28 07:14:50;;;;;;;2.63;0.70;;;6.50;99.90;;;;;;5004168;28;20085;-67
2024/03/28 07:17:16;;;;;;;1.33;0.70;;;6.40;99.90;;;;;;5005372;28;20030;-67
2024/03/28 07:19:42;;;;;;;1.98;0.95;;;6.40;99.90;;;;;;5002151;28;20022;-67
2024/03/28 07:22:08;;;;;;;1.08;0.60;;;6.30;99.90;;;;;;5002683;28;20018;-65
2024/03/28 07:24:38;;;;;;;1.98;1.17;;;6.40;99.90;;;;;;5003162;28;20081;-65
2024/03/28 07:27:06;;;;;;;2.72;1.30;;;6.40;99.90;;;;;;5003785;28;20469;-65
2024/03/28 07:29:31;;;;;;;1.58;0.95;;;6.30;99.90;;;;;;5002367;28;20037;-65
2024/03/28 07:31:57;;;;;;;2.22;0.98;;;6.30;99.90;;;;;;5004446;28;20022;-65
2024/03/28 07:34:23;;;;;;;2.00;0.95;;;6.30;99.90;;;;;;5001413;28;20546;-65
2024/03/28 07:36:49;;;;;;;2.17;1.08;;;6.30;99.90;;;;;;5004032;28;20038;-67
2024/03/28 07:39:15;;;;;;;1.17;0.70;;;6.30;99.90;;;;;;5001725;28;20065;-65
2024/03/28 07:41:41;;;;;;;1.67;1.10;;;6.30;99.90;;;;;;5003195;28;20581;-65
2024/03/28 07:44:07;;;;;;;1.75;0.90;;;6.30;99.90;;;;;;5001976;28;20483;-67
2024/03/28 07:46:33;;;;;;;2.30;1.42;;;6.30;99.90;;;;;;5000578;28;20081;-67
2024/03/28 07:48:59;;;;;;;1.55;0.60;;;6.30;99.90;;;;;;5000815;28;20124;-68
2024/03/28 07:51:25;;;;;;;1.65;1.10;;;6.20;99.90;;;;;;5003320;28;20026;-67
2024/03/28 07:53:52;;;;;;;0.82;0.80;;;6.30;99.90;;;;;;5014954;28;20494;-67
2024/03/28 07:56:21;;;;;;;2.63;0.75;;;6.30;99.90;;;;;;5002340;28;20034;-67
2024/03/28 07:58:47;;;;;;;2.30;1.52;;;6.40;99.90;;;;;;5000170;28;20053;-66
2024/03/28 08:01:13;;;;;;;4.10;1.45;;;6.50;99.90;;;;;;5002945;28;20701;-66
2024/03/28 08:03:38;;;;;;;3.03;1.30;;;6.50;99.90;;;;;;5001011;28;20034;-66
2024/03/28 08:06:05;;;;;;;5.25;1.23;;;6.60;99.90;;;;;;5016747;28;20042;-66
2024/03/28 08:08:35;;;;;;;1.60;0.85;;;6.80;99.90;;;;;;4983697;28;20027;-66
2024/03/28 08:11:01;;;;;;;2.45;0.90;;;6.90;99.90;;;;;;5001175;28;20037;-66
2024/03/28 08:13:27;;;;;;;2.45;1.30;;;6.80;99.90;;;;;;5001238;28;20394;-66
2024/03/28 08:15:54;;;;;;;1.70;0.98;;;6.80;99.90;;;;;;4997829;28;20481;-66
2024/03/28 08:18:20;;;;;;;0.95;0.90;;;6.70;99.90;;;;;;5001685;28;20364;-66
2024/03/28 08:20:45;;;;;;;2.92;0.85;;;6.70;99.90;;;;;;5013396;28;20041;-66
2024/03/28 08:23:12;;;;;;;1.52;0.70;;;6.70;99.90;;;;;;5008340;28;20045;-65
2024/03/28 08:25:38;;;;;;;3.30;1.05;;;6.70;99.90;;;;;;5007234;28;20114;-65
2024/03/28 08:28:07;;;;;;;1.83;0.95;;;6.70;99.90;;;;;;4994076;28;20109;-66
2024/03/28 08:30:34;;;;;;;3.67;1.20;;;6.70;99.90;;;;;;4988496;28;20042;-64
2024/03/28 08:32:59;;;;;;;2.03;1.10;;;6.90;99.90;;;;;;4993785;28;20061;-65
2024/03/28 08:35:25;;;;;;;2.08;1.20;;;7.00;99.90;;;;;;4992282;28;20104;-65
2024/03/28 08:37:53;;;;;;;1.98;1.23;;;7.10;99.90;;;;;;4991411;28;20569;-65
2024/03/28 08:40:20;;;;;;;1.85;1.15;;;7.00;99.90;;;;;;5003493;28;20525;-65
2024/03/28 08:42:46;;;;;;;2.42;1.50;;;7.00;99.90;;;;;;4994110;28;20026;-65
2024/03/28 08:45:13;;;;;;;1.40;0.90;;;7.00;99.90;;;;;;4987706;28;20530;-65
2024/03/28 08:47:40;;;;;;;2.72;1.50;;;7.10;99.90;;;;;;5001609;28;20041;-65
2024/03/28 08:50:07;;;;;;;2.10;1.10;;;7.20;99.90;;;;;;4992987;28;20034;-65
2024/03/28 08:52:33;;;;;;;2.95;1.00;;;7.30;99.90;;;;;;4994398;28;20479;-66
2024/03/28 08:54:59;;;;;;;2.80;1.40;;;7.30;99.90;;;;;;4999410;28;20041;-66
2024/03/28 08:57:26;;;;;;;3.60;1.00;;;7.30;99.90;;;;;;5003651;28;20486;-64
2024/03/28 08:59:52;;;;;;;4.50;1.40;;;7.30;99.90;;;;;;4994893;28;20065;-67
2024/03/28 09:02:22;;;;;;;1.30;0.85;;;7.30;99.90;;;;;;5001384;28;20046;-64
2024/03/28 09:04:49;;;;;;;2.42;0.95;;;7.40;99.90;;;;;;4991836;28;20200;-65
2024/03/28 09:07:16;;;;;;;2.38;1.30;;;7.30;99.90;;;;;;4998669;28;20023;-65
2024/03/28 09:09:42;;;;;;;1.83;0.80;;;7.40;99.90;;;;;;4989682;28;20026;-65
2024/03/28 09:12:10;;;;;;;1.30;0.88;;;7.40;99.90;;;;;;5001151;28;20026;-65
2024/03/28 09:14:40;;;;;;;1.65;1.05;;;7.40;99.90;;;;;;4996511;28;20355;-65
2024/03/28 09:17:07;;;;;;;3.47;0.93;;;7.50;99.90;;;;;;5003434;28;20056;-65
2024/03/28 09:19:34;;;;;;;2.90;1.30;;;7.40;99.90;;;;;;4989001;28;20031;-65
2024/03/28 09:22:01;;;;;;;2.08;1.05;;;7.40;99.90;;;;;;4997839;28;20383;-65
2024/03/28 09:24:27;;;;;;;1.67;1.05;;;7.40;99.90;;;;;;4987459;28;20527;-66
2024/03/28 09:26:54;;;;;;;1.65;1.02;;;7.50;99.90;;;;;;4992294;28;20660;-65
2024/03/28 09:29:21;;;;;;;2.10;1.20;;;7.50;99.90;;;;;;4987601;28;20061;-65
2024/03/28 09:31:48;;;;;;;2.45;1.08;;;7.60;99.90;;;;;;4992522;28;20435;-65
2024/03/28 09:34:17;;;;;;;4.60;1.40;;;7.60;99.90;;;;;;4986792;28;20107;-65
2024/03/28 09:36:43;;;;;;;2.60;1.38;;;7.70;99.90;;;;;;4991586;28;20026;-66
2024/03/28 09:39:13;;;;;;;3.95;1.25;;;7.70;99.90;;;;;;4988662;28;20071;-65
2024/03/28 09:41:45;;;;;;;2.60;1.17;;;7.70;99.90;;;;;;4991472;28;20403;-65
2024/03/28 09:44:21;;;;;;;1.52;0.90;;;7.70;99.90;;;;;;5002669;28;20054;-65
2024/03/28 09:46:52;;;;;;;2.05;1.08;;;7.70;99.90;;;;;;4984114;28;20096;-65
2024/03/28 09:49:19;;;;;;;3.28;1.35;;;7.80;99.90;;;;;;4987041;28;20133;-65
2024/03/28 09:51:51;;;;;;;4.95;1.10;;;7.80;99.90;;;;;;4992442;28;20027;-65
2024/03/28 09:54:18;;;;;;;3.10;1.05;;;7.90;99.90;;;;;;5001514;28;20031;-66
2024/03/28 09:56:44;;;;;;;1.83;1.10;;;8.10;99.90;;;;;;4990401;28;20052;-66
2024/03/28 09:59:11;;;;;;;1.90;1.13;;;8.20;99.90;;;;;;5003338;28;20062;-65
2024/03/28 10:01:40;;;;;;;2.35;1.00;;;8.50;99.90;;;;;;4991217;28;20030;-65
2024/03/28 10:04:19;;;;;;;1.42;0.55;;;8.60;99.90;;;;;;4986693;28;20041;-66
2024/03/28 10:06:56;;;;;;;8.38;1.02;;;8.70;99.90;;;;;;4983664;28;20057;-66
2024/03/28 10:09:22;;;;;;;1.92;0.90;;;8.70;99.90;;;;;;4986818;28;20027;-66
2024/03/28 10:11:51;;;;;;;0.98;0.60;;;8.90;99.90;;;;;;5007079;28;20052;-66
2024/03/28 10:14:26;;;;;;;0.98;0.70;;;9.30;99.90;;;;;;4986776;28;20030;-65
2024/03/28 10:17:01;;;;;;;1.10;0.80;;;9.30;99.90;;;;;;4994031;28;20040;-65
2024/03/28 10:19:29;;;;;;;1.27;0.90;;;9.20;99.90;;;;;;4992471;28;20118;-66
2024/03/28 10:22:12;;;;;;;0.30;0.10;;;8.90;99.90;;;;;;4991713;28;20026;-66
2024/03/28 10:24:46;;;;;;;2.22;0.20;;;7.50;99.90;;;;;;4989928;28;20487;-66
2024/03/28 10:27:18;;;;;;;0.95;0.65;;;6.80;99.90;;;;;;5005207;28;20030;-67
2024/03/28 10:29:53;;;;;;;2.30;0.32;;;6.80;99.90;;;;;;5000914;28;20027;-66
2024/03/28 10:32:19;;;;;;;1.60;0.10;;;6.80;99.90;;;;;;4991931;28;20250;-66
2024/03/28 10:34:50;;;;;;;0.25;0.20;;;6.90;99.90;;;;;;5001952;28;20019;-66
2024/03/28 10:37:22;;;;;;;1.48;0.30;;;7.00;99.90;;;;;;5005776;28;20025;-67
2024/03/28 10:39:49;;;;;;;0.13;0.13;;;7.00;99.90;;;;;;4993401;28;20042;-66
2024/03/28 10:42:16;;;;;;;0.20;0.17;;;7.20;99.90;;;;;;4991696;28;20122;-66
2024/03/28 10:44:46;;;;;;;0.10;0.10;;;7.50;99.90;;;;;;4990446;28;20030;-66
2024/03/28 10:47:17;;;;;;;0.73;0.20;;;7.70;99.90;;;;;;4992786;28;20040;-66
2024/03/28 10:49:50;;;;;;;0.00;0.00;;;7.80;99.90;;;;;;4990401;28;20116;-67
2024/03/28 10:52:36;;;;;;;0.20;0.05;;;8.00;99.90;;;;;;4994801;28;20127;-68
2024/03/28 10:55:05;;;;;;;1.15;0.10;;;8.10;99.90;;;;;;4990030;28;20044;-68
2024/03/28 10:57:33;;;;;;;0.30;0.30;;;8.50;99.90;;;;;;4995028;28;20030;-68
2024/03/28 10:59:59;;;;;;;0.30;0.20;;;8.60;99.90;;;;;;4994568;28;20034;-66
2024/03/28 11:02:28;;;;;;;0.88;0.38;;;8.70;99.90;;;;;;4995442;28;20030;-67
2024/03/28 11:04:54;;;;;;;0.63;0.20;;;8.30;99.90;;;;;;5005647;28;20479;-67
2024/03/28 11:07:25;;;;;;;0.50;0.35;;;8.10;99.90;;;;;;4994626;28;20113;-67
2024/03/28 11:09:58;;;;;;;0.10;0.10;;;7.90;99.90;;;;;;5002746;28;20092;-68
2024/03/28 11:12:25;;;;;;;0.45;0.45;;;7.80;99.90;;;;;;5009475;28;20050;-67
2024/03/28 11:14:56;;;;;;;0.10;0.10;;;7.80;99.90;;;;;;4989903;28;20050;-67
2024/03/28 11:17:22;;;;;;;0.10;0.10;;;7.80;99.90;;;;;;4994866;28;20054;-67
2024/03/28 11:20:09;;;;;;;0.30;0.20;;;7.80;99.90;;;;;;4989594;28;20031;-67
2024/03/28 11:22:35;;;;;;;0.00;0.00;;;7.80;99.90;;;;;;4995287;28;20495;-67
2024/03/28 11:25:01;;;;;;;0.00;0.00;;;7.80;99.90;;;;;;4989770;28;20053;-67
2024/03/28 11:27:27;;;;;;;0.90;0.10;;;7.70;99.90;;;;;;5009386;28;20104;-68
2024/03/28 11:30:14;;;;;;;0.10;0.10;;;7.60;99.90;;;;;;4993975;28;20022;-68
2024/03/28 11:32:39;;;;;;;0.17;0.13;;;7.50;99.90;;;;;;5008812;28;20042;-68
2024/03/28 11:35:10;;;;;;;0.22;0.08;;;7.90;99.90;;;;;;4994881;28;20085;-68
2024/03/28 11:37:36;;;;;;;0.10;0.10;;;8.30;99.90;;;;;;4994747;28;20042;-68
2024/03/28 11:40:06;;;;;;;0.10;0.03;;;9.00;99.90;;;;;;4989652;28;20121;-68
2024/03/28 11:42:34;;;;;;;0.00;0.00;;;9.50;99.90;;;;;;4977340;28;20034;-69
2024/03/28 11:45:07;;;;;;;0.00;0.00;;;9.80;99.90;;;;;;4988678;28;20049;-69
2024/03/28 11:47:34;;;;;;;0.57;0.25;;;9.90;99.90;;;;;;4994243;28;20027;-69
2024/03/28 11:50:07;;;;;;;4.28;0.40;;;10.30;99.90;;;;;;4994400;28;20022;-68
2024/03/28 11:52:37;;;;;;;0.65;0.10;;;10.30;99.90;;;;;;5009505;28;20018;-67
2024/03/28 11:55:06;;;;;;;1.35;0.20;;;10.10;99.90;;;;;;5003861;28;20026;-67
2024/03/28 11:57:32;;;;;;;0.28;0.20;;;10.00;99.90;;;;;;4992765;28;20050;-67
2024/03/28 12:00:05;;;;;;;0.10;0.10;;;10.00;99.90;;;;;;5008626;28;20022;-67
2024/03/28 12:02:31;;;;;;;0.45;0.28;;;10.00;99.90;;;;;;4993821;28;20023;-68
2024/03/28 12:05:06;;;;;;;0.32;0.20;;;9.80;99.90;;;;;;5004509;28;20109;-67
2024/03/28 12:07:32;;;;;;;0.10;0.10;;;9.70;99.90;;;;;;5007843;28;20038;-68
2024/03/28 12:09:58;;;;;;;0.40;0.30;;;9.50;99.90;;;;;;5008618;28;20738;-68
2024/03/28 12:12:24;;;;;;;0.22;0.20;;;9.50;99.90;;;;;;5008932;28;20027;-67
2024/03/28 12:14:52;;;;;;;1.27;0.40;;;9.60;99.90;;;;;;4992286;28;20077;-67
2024/03/28 12:17:20;;;;;;;0.30;0.15;;;9.50;99.90;;;;;;4991925;28;20115;-69
2024/03/28 12:19:46;;;;;;;0.00;0.00;;;9.40;99.90;;;;;;4993330;28;20034;-68
2024/03/28 12:22:13;;;;;;;6.03;0.32;;;9.30;99.90;;;;;;4992300;28;20073;-68
2024/03/28 12:24:42;;;;;;;0.17;0.00;;;9.20;99.90;;;;;;4988224;28;20031;-67
2024/03/28 12:27:14;;;;;;;0.20;0.20;;;10.10;99.90;;;;;;4993837;28;20086;-68
2024/03/28 12:29:39;;;;;;;2.03;0.10;;;11.40;99.90;;;;;;4988490;28;20069;-68
2024/03/28 12:32:08;;;;;;;2.72;0.15;;;12.00;99.90;;;;;;5008700;28;20547;-66
2024/03/28 12:34:34;;;;;;;0.65;0.55;;;12.50;99.90;;;;;;4987541;28;20089;-67
2024/03/28 12:37:00;;;;;;;0.38;0.17;;;13.50;99.90;;;;;;4992461;28;20034;-67
2024/03/28 12:39:26;;;;;;;0.10;0.10;;;14.40;99.90;;;;;;4988403;28;20583;-67
2024/03/28 12:41:55;;;;;;;0.08;0.08;;;14.90;97.90;;;;;;4993764;28;20053;-67
2024/03/28 12:44:27;;;;;;;0.00;0.00;;;14.80;98.40;;;;;;5003115;28;20030;-68
2024/03/28 12:46:53;;;;;;;0.00;0.00;;;15.20;97.80;;;;;;4988282;28;20038;-68
2024/03/28 12:49:19;;;;;;;0.08;0.05;;;14.60;95.70;;;;;;4999488;28;20034;-68
2024/03/28 12:51:45;;;;;;;0.63;0.17;;;14.60;96.60;;;;;;4993122;28;20030;-68
2024/03/28 12:54:11;;;;;;;0.10;0.00;;;15.10;96.60;;;;;;4988629;28;20438;-67
2024/03/28 12:56:37;;;;;;;0.15;0.08;;;16.00;94.50;;;;;;4991687;28;20034;-67
2024/03/28 12:59:03;;;;;;;0.93;0.35;;;15.30;96.30;;;;;;5005645;28;20034;-67
2024/03/28 13:01:28;;;;;;;0.55;0.08;;;15.50;96.80;;;;;;5005788;28;20375;-67